sensor_id;sensor_type;location;lat;lon;timestamp;P1;durP1;ratioP1;P2;durP2;ratioP2
29218;SDS011;16421;50.202;7.852;2022-11-15T00:02:51;3.97;;;2.22;;
29218;SDS011;16421;50.202;7.852;2022-11-15T00:08:15;3.70;;;1.40;;
29218;SDS011;16421;50.202;7.852;2022-11-15T00:13:37;1.45;;;1.20;;
29218;SDS011;16421;50.202;7.852;2022-11-15T00:19:00;1.85;;;1.70;;
29218;SDS011;16421;50.202;7.852;2022-11-15T00:24:24;2.08;;;1.48;;
29218;SDS011;16421;50.202;7.852;2022-11-15T00:29:46;1.50;;;1.38;;
29218;SDS011;16421;50.202;7.852;2022-11-15T00:35:08;3.10;;;2.28;;
29218;SDS011;16421;50.202;7.852;2022-11-15T00:40:31;1.70;;;1.60;;
29218;SDS011;16421;50.202;7.852;2022-11-15T00:45:54;3.05;;;2.45;;
29218;SDS011;16421;50.202;7.852;2022-11-15T00:51:16;4.20;;;2.80;;
29218;SDS011;16421;50.202;7.852;2022-11-15T00:56:39;2.92;;;2.20;;
29218;SDS011;16421;50.202;7.852;2022-11-15T01:02:02;3.78;;;2.95;;
29218;SDS011;16421;50.202;7.852;2022-11-15T01:07:24;3.10;;;2.70;;
29218;SDS011;16421;50.202;7.852;2022-11-15T01:12:48;5.15;;;2.15;;
29218;SDS011;16421;50.202;7.852;2022-11-15T01:18:10;2.72;;;1.85;;
29218;SDS011;16421;50.202;7.852;2022-11-15T01:23:32;2.45;;;1.75;;
29218;SDS011;16421;50.202;7.852;2022-11-15T01:28:56;3.40;;;2.00;;
29218;SDS011;16421;50.202;7.852;2022-11-15T01:34:18;2.28;;;1.58;;
29218;SDS011;16421;50.202;7.852;2022-11-15T01:39:40;2.35;;;1.73;;
29218;SDS011;16421;50.202;7.852;2022-11-15T01:45:04;4.20;;;1.92;;
29218;SDS011;16421;50.202;7.852;2022-11-15T01:50:30;5.13;;;2.30;;
29218;SDS011;16421;50.202;7.852;2022-11-15T01:55:54;2.65;;;2.03;;
29218;SDS011;16421;50.202;7.852;2022-11-15T02:01:18;2.95;;;2.17;;
29218;SDS011;16421;50.202;7.852;2022-11-15T02:06:40;2.05;;;1.58;;
29218;SDS011;16421;50.202;7.852;2022-11-15T02:12:04;2.10;;;1.88;;
29218;SDS011;16421;50.202;7.852;2022-11-15T02:29:21;2.70;;;1.80;;
29218;SDS011;16421;50.202;7.852;2022-11-15T02:34:56;2.25;;;1.25;;
29218;SDS011;16421;50.202;7.852;2022-11-15T02:40:32;2.28;;;1.60;;
29218;SDS011;16421;50.202;7.852;2022-11-15T02:46:01;1.60;;;1.45;;
29218;SDS011;16421;50.202;7.852;2022-11-15T02:51:29;1.90;;;1.17;;
29218;SDS011;16421;50.202;7.852;2022-11-15T02:56:53;3.35;;;2.17;;
29218;SDS011;16421;50.202;7.852;2022-11-15T03:02:18;1.83;;;1.52;;
29218;SDS011;16421;50.202;7.852;2022-11-15T03:07:52;1.42;;;1.27;;
29218;SDS011;16421;50.202;7.852;2022-11-15T03:13:23;1.88;;;1.23;;
29218;SDS011;16421;50.202;7.852;2022-11-15T03:18:50;1.90;;;1.50;;
29218;SDS011;16421;50.202;7.852;2022-11-15T03:24:17;1.52;;;1.13;;
29218;SDS011;16421;50.202;7.852;2022-11-15T03:29:46;1.70;;;1.42;;
29218;SDS011;16421;50.202;7.852;2022-11-15T03:35:11;2.17;;;1.42;;
29218;SDS011;16421;50.202;7.852;2022-11-15T03:40:38;3.03;;;1.55;;
29218;SDS011;16421;50.202;7.852;2022-11-15T03:46:04;2.00;;;1.60;;
29218;SDS011;16421;50.202;7.852;2022-11-15T03:51:29;1.33;;;1.17;;
29218;SDS011;16421;50.202;7.852;2022-11-15T03:56:52;1.27;;;1.13;;
29218;SDS011;16421;50.202;7.852;2022-11-15T04:02:15;2.38;;;1.40;;
29218;SDS011;16421;50.202;7.852;2022-11-15T04:07:37;2.35;;;1.30;;
29218;SDS011;16421;50.202;7.852;2022-11-15T04:13:01;1.85;;;1.27;;
29218;SDS011;16421;50.202;7.852;2022-11-15T04:18:24;2.05;;;1.80;;
29218;SDS011;16421;50.202;7.852;2022-11-15T04:23:46;1.50;;;1.38;;
29218;SDS011;16421;50.202;7.852;2022-11-15T04:29:27;2.10;;;1.50;;
29218;SDS011;16421;50.202;7.852;2022-11-15T04:34:55;1.92;;;1.50;;
29218;SDS011;16421;50.202;7.852;2022-11-15T04:40:17;1.77;;;1.40;;
29218;SDS011;16421;50.202;7.852;2022-11-15T04:45:41;1.42;;;1.02;;
29218;SDS011;16421;50.202;7.852;2022-11-15T04:51:03;1.45;;;1.30;;
29218;SDS011;16421;50.202;7.852;2022-11-15T04:56:25;2.20;;;1.75;;
29218;SDS011;16421;50.202;7.852;2022-11-15T05:01:49;1.63;;;1.33;;
29218;SDS011;16421;50.202;7.852;2022-11-15T05:07:11;2.10;;;1.35;;
29218;SDS011;16421;50.202;7.852;2022-11-15T05:12:33;2.13;;;1.60;;
29218;SDS011;16421;50.202;7.852;2022-11-15T05:17:58;2.35;;;1.25;;
29218;SDS011;16421;50.202;7.852;2022-11-15T05:23:20;2.05;;;1.13;;
29218;SDS011;16421;50.202;7.852;2022-11-15T05:28:43;1.35;;;1.25;;
29218;SDS011;16421;50.202;7.852;2022-11-15T05:34:06;1.77;;;1.60;;
29218;SDS011;16421;50.202;7.852;2022-11-15T05:39:28;1.67;;;1.40;;
29218;SDS011;16421;50.202;7.852;2022-11-15T05:44:50;1.50;;;1.40;;
29218;SDS011;16421;50.202;7.852;2022-11-15T05:50:15;1.98;;;1.63;;
29218;SDS011;16421;50.202;7.852;2022-11-15T05:55:38;2.28;;;1.75;;
29218;SDS011;16421;50.202;7.852;2022-11-15T06:01:02;2.78;;;1.75;;
29218;SDS011;16421;50.202;7.852;2022-11-15T06:06:26;1.40;;;1.13;;
29218;SDS011;16421;50.202;7.852;2022-11-15T06:11:48;4.68;;;1.73;;
29218;SDS011;16421;50.202;7.852;2022-11-15T06:17:11;2.83;;;1.38;;
29218;SDS011;16421;50.202;7.852;2022-11-15T06:22:34;1.67;;;1.50;;
29218;SDS011;16421;50.202;7.852;2022-11-15T06:27:57;2.10;;;1.58;;
29218;SDS011;16421;50.202;7.852;2022-11-15T06:33:20;1.88;;;1.60;;
29218;SDS011;16421;50.202;7.852;2022-11-15T06:38:43;2.15;;;1.30;;
29218;SDS011;16421;50.202;7.852;2022-11-15T06:44:05;1.20;;;1.05;;
29218;SDS011;16421;50.202;7.852;2022-11-15T06:49:27;1.67;;;1.35;;
29218;SDS011;16421;50.202;7.852;2022-11-15T06:54:51;1.65;;;1.55;;
29218;SDS011;16421;50.202;7.852;2022-11-15T07:00:13;2.47;;;1.90;;
29218;SDS011;16421;50.202;7.852;2022-11-15T07:05:36;2.25;;;1.40;;
29218;SDS011;16421;50.202;7.852;2022-11-15T07:11:00;1.80;;;1.30;;
29218;SDS011;16421;50.202;7.852;2022-11-15T07:16:23;4.60;;;2.47;;
29218;SDS011;16421;50.202;7.852;2022-11-15T07:21:45;4.18;;;2.00;;
29218;SDS011;16421;50.202;7.852;2022-11-15T07:27:09;2.67;;;1.75;;
29218;SDS011;16421;50.202;7.852;2022-11-15T07:32:31;2.22;;;1.65;;
29218;SDS011;16421;50.202;7.852;2022-11-15T07:37:54;2.40;;;2.05;;
29218;SDS011;16421;50.202;7.852;2022-11-15T07:43:18;1.92;;;1.52;;
29218;SDS011;16421;50.202;7.852;2022-11-15T07:48:40;1.50;;;1.40;;
29218;SDS011;16421;50.202;7.852;2022-11-15T07:54:03;2.08;;;1.73;;
29218;SDS011;16421;50.202;7.852;2022-11-15T07:59:27;1.70;;;1.48;;
29218;SDS011;16421;50.202;7.852;2022-11-15T08:04:49;1.67;;;1.35;;
29218;SDS011;16421;50.202;7.852;2022-11-15T08:10:11;2.10;;;1.50;;
29218;SDS011;16421;50.202;7.852;2022-11-15T08:15:36;2.65;;;1.65;;
29218;SDS011;16421;50.202;7.852;2022-11-15T08:20:58;2.20;;;1.40;;
29218;SDS011;16421;50.202;7.852;2022-11-15T08:26:21;1.20;;;1.02;;
29218;SDS011;16421;50.202;7.852;2022-11-15T08:31:46;1.50;;;1.25;;
29218;SDS011;16421;50.202;7.852;2022-11-15T08:37:08;1.63;;;1.10;;
29218;SDS011;16421;50.202;7.852;2022-11-15T08:42:30;1.75;;;1.42;;
29218;SDS011;16421;50.202;7.852;2022-11-15T08:47:54;1.20;;;1.10;;
29218;SDS011;16421;50.202;7.852;2022-11-15T08:53:16;2.20;;;1.10;;
29218;SDS011;16421;50.202;7.852;2022-11-15T08:58:38;1.60;;;1.20;;
29218;SDS011;16421;50.202;7.852;2022-11-15T09:04:02;1.30;;;1.00;;
29218;SDS011;16421;50.202;7.852;2022-11-15T09:09:24;1.10;;;0.80;;
29218;SDS011;16421;50.202;7.852;2022-11-15T09:14:46;0.80;;;0.80;;
29218;SDS011;16421;50.202;7.852;2022-11-15T09:20:10;1.27;;;0.80;;
29218;SDS011;16421;50.202;7.852;2022-11-15T09:25:32;1.25;;;0.98;;
29218;SDS011;16421;50.202;7.852;2022-11-15T09:30:57;1.85;;;1.08;;
29218;SDS011;16421;50.202;7.852;2022-11-15T09:36:21;1.38;;;1.10;;
29218;SDS011;16421;50.202;7.852;2022-11-15T09:41:48;1.13;;;0.82;;
29218;SDS011;16421;50.202;7.852;2022-11-15T09:47:29;2.33;;;1.77;;
29218;SDS011;16421;50.202;7.852;2022-11-15T09:53:05;0.80;;;0.70;;
29218;SDS011;16421;50.202;7.852;2022-11-15T09:58:15;0.75;;;0.70;;
29218;SDS011;16421;50.202;7.852;2022-11-15T10:03:26;1.67;;;0.90;;
29218;SDS011;16421;50.202;7.852;2022-11-15T10:14:00;1.48;;;1.10;;
29218;SDS011;16421;50.202;7.852;2022-11-15T10:19:08;2.83;;;1.25;;
29218;SDS011;16421;50.202;7.852;2022-11-15T10:24:22;1.60;;;1.20;;
29218;SDS011;16421;50.202;7.852;2022-11-15T10:29:29;1.70;;;1.00;;
29218;SDS011;16421;50.202;7.852;2022-11-15T10:34:35;1.70;;;1.17;;
29218;SDS011;16421;50.202;7.852;2022-11-15T10:39:40;1.55;;;1.40;;
29218;SDS011;16421;50.202;7.852;2022-11-15T10:44:46;2.20;;;1.08;;
29218;SDS011;16421;50.202;7.852;2022-11-15T10:49:53;1.00;;;0.90;;
29218;SDS011;16421;50.202;7.852;2022-11-15T10:55:00;0.85;;;0.82;;
29218;SDS011;16421;50.202;7.852;2022-11-15T11:00:27;0.90;;;0.70;;
29218;SDS011;16421;50.202;7.852;2022-11-15T11:05:34;0.80;;;0.80;;
29218;SDS011;16421;50.202;7.852;2022-11-15T11:10:44;0.98;;;0.90;;
29218;SDS011;16421;50.202;7.852;2022-11-15T11:15:59;0.70;;;0.70;;
29218;SDS011;16421;50.202;7.852;2022-11-15T11:21:13;1.42;;;1.30;;
29218;SDS011;16421;50.202;7.852;2022-11-15T11:26:31;1.77;;;1.27;;
29218;SDS011;16421;50.202;7.852;2022-11-15T11:31:44;0.98;;;0.90;;
29218;SDS011;16421;50.202;7.852;2022-11-15T11:36:52;1.75;;;0.88;;
29218;SDS011;16421;50.202;7.852;2022-11-15T11:42:07;3.00;;;1.05;;
29218;SDS011;16421;50.202;7.852;2022-11-15T11:47:18;1.63;;;1.00;;
29218;SDS011;16421;50.202;7.852;2022-11-15T11:52:27;1.08;;;0.80;;
29218;SDS011;16421;50.202;7.852;2022-11-15T11:57:37;2.63;;;1.45;;
29218;SDS011;16421;50.202;7.852;2022-11-15T12:02:45;1.40;;;0.80;;
29218;SDS011;16421;50.202;7.852;2022-11-15T12:07:58;1.65;;;0.93;;
29218;SDS011;16421;50.202;7.852;2022-11-15T12:13:07;0.82;;;0.73;;
29218;SDS011;16421;50.202;7.852;2022-11-15T12:18:14;0.75;;;0.75;;
29218;SDS011;16421;50.202;7.852;2022-11-15T12:23:19;1.42;;;0.90;;
29218;SDS011;16421;50.202;7.852;2022-11-15T12:28:28;1.55;;;1.10;;
29218;SDS011;16421;50.202;7.852;2022-11-15T12:33:38;1.02;;;0.70;;
29218;SDS011;16421;50.202;7.852;2022-11-15T12:38:53;1.88;;;1.17;;
29218;SDS011;16421;50.202;7.852;2022-11-15T12:43:59;2.38;;;1.58;;
29218;SDS011;16421;50.202;7.852;2022-11-15T12:49:07;2.97;;;1.25;;
29218;SDS011;16421;50.202;7.852;2022-11-15T12:59:55;3.33;;;2.00;;
29218;SDS011;16421;50.202;7.852;2022-11-15T13:10:44;1.63;;;1.13;;
29218;SDS011;16421;50.202;7.852;2022-11-15T13:15:56;1.70;;;1.25;;
29218;SDS011;16421;50.202;7.852;2022-11-15T13:21:02;1.63;;;1.25;;
29218;SDS011;16421;50.202;7.852;2022-11-15T13:26:29;1.10;;;1.00;;
29218;SDS011;16421;50.202;7.852;2022-11-15T13:31:35;1.17;;;0.97;;
29218;SDS011;16421;50.202;7.852;2022-11-15T13:36:40;2.05;;;1.10;;
29218;SDS011;16421;50.202;7.852;2022-11-15T13:41:46;0.82;;;0.65;;
29218;SDS011;16421;50.202;7.852;2022-11-15T13:47:00;0.55;;;0.55;;
29218;SDS011;16421;50.202;7.852;2022-11-15T13:52:05;1.70;;;1.10;;
29218;SDS011;16421;50.202;7.852;2022-11-15T13:57:12;1.90;;;1.45;;
29218;SDS011;16421;50.202;7.852;2022-11-15T14:02:18;1.40;;;1.00;;
29218;SDS011;16421;50.202;7.852;2022-11-15T14:07:25;2.33;;;1.23;;
29218;SDS011;16421;50.202;7.852;2022-11-15T14:12:32;2.47;;;1.50;;
29218;SDS011;16421;50.202;7.852;2022-11-15T14:22:50;1.50;;;1.25;;
29218;SDS011;16421;50.202;7.852;2022-11-15T14:28:16;1.60;;;1.30;;
29218;SDS011;16421;50.202;7.852;2022-11-15T14:33:34;1.60;;;0.90;;
29218;SDS011;16421;50.202;7.852;2022-11-15T14:38:40;1.92;;;1.38;;
29218;SDS011;16421;50.202;7.852;2022-11-15T14:43:48;1.85;;;1.10;;
29218;SDS011;16421;50.202;7.852;2022-11-15T14:48:52;1.30;;;1.10;;
29218;SDS011;16421;50.202;7.852;2022-11-15T14:53:55;1.50;;;1.40;;
29218;SDS011;16421;50.202;7.852;2022-11-15T14:59:00;2.08;;;1.20;;
29218;SDS011;16421;50.202;7.852;2022-11-15T15:04:03;1.60;;;1.48;;
29218;SDS011;16421;50.202;7.852;2022-11-15T15:09:07;2.88;;;1.85;;
29218;SDS011;16421;50.202;7.852;2022-11-15T15:14:12;1.98;;;1.65;;
29218;SDS011;16421;50.202;7.852;2022-11-15T15:19:17;2.70;;;1.77;;
29218;SDS011;16421;50.202;7.852;2022-11-15T15:24:20;2.00;;;1.45;;
29218;SDS011;16421;50.202;7.852;2022-11-15T15:29:25;2.65;;;1.60;;
29218;SDS011;16421;50.202;7.852;2022-11-15T15:34:28;2.70;;;1.40;;
29218;SDS011;16421;50.202;7.852;2022-11-15T15:39:32;3.63;;;1.70;;
29218;SDS011;16421;50.202;7.852;2022-11-15T15:44:36;1.77;;;1.55;;
29218;SDS011;16421;50.202;7.852;2022-11-15T15:49:40;2.85;;;1.98;;
29218;SDS011;16421;50.202;7.852;2022-11-15T15:54:43;2.70;;;2.03;;
29218;SDS011;16421;50.202;7.852;2022-11-15T15:59:51;2.40;;;1.65;;
29218;SDS011;16421;50.202;7.852;2022-11-15T16:04:55;1.90;;;1.70;;
29218;SDS011;16421;50.202;7.852;2022-11-15T16:09:59;2.80;;;1.85;;
29218;SDS011;16421;50.202;7.852;2022-11-15T16:15:04;3.63;;;1.92;;
29218;SDS011;16421;50.202;7.852;2022-11-15T16:20:09;3.30;;;1.42;;
29218;SDS011;16421;50.202;7.852;2022-11-15T16:25:26;2.00;;;1.65;;
29218;SDS011;16421;50.202;7.852;2022-11-15T16:30:30;2.40;;;1.83;;
29218;SDS011;16421;50.202;7.852;2022-11-15T16:35:34;3.35;;;2.20;;
29218;SDS011;16421;50.202;7.852;2022-11-15T16:40:38;2.33;;;1.98;;
29218;SDS011;16421;50.202;7.852;2022-11-15T16:45:43;3.75;;;2.28;;
29218;SDS011;16421;50.202;7.852;2022-11-15T16:50:46;3.33;;;2.40;;
29218;SDS011;16421;50.202;7.852;2022-11-15T16:55:49;3.25;;;2.13;;
29218;SDS011;16421;50.202;7.852;2022-11-15T17:00:55;4.05;;;2.25;;
29218;SDS011;16421;50.202;7.852;2022-11-15T17:05:59;3.13;;;1.77;;
29218;SDS011;16421;50.202;7.852;2022-11-15T17:11:04;2.40;;;1.77;;
29218;SDS011;16421;50.202;7.852;2022-11-15T17:16:10;4.03;;;2.80;;
29218;SDS011;16421;50.202;7.852;2022-11-15T17:21:15;3.15;;;2.20;;
29218;SDS011;16421;50.202;7.852;2022-11-15T17:26:22;4.45;;;2.13;;
29218;SDS011;16421;50.202;7.852;2022-11-15T17:31:30;3.22;;;2.05;;
29218;SDS011;16421;50.202;7.852;2022-11-15T17:36:34;2.33;;;1.52;;
29218;SDS011;16421;50.202;7.852;2022-11-15T17:41:38;3.10;;;1.75;;
29218;SDS011;16421;50.202;7.852;2022-11-15T17:46:43;3.72;;;1.67;;
29218;SDS011;16421;50.202;7.852;2022-11-15T17:51:46;2.70;;;1.70;;
29218;SDS011;16421;50.202;7.852;2022-11-15T17:56:50;2.40;;;1.75;;
29218;SDS011;16421;50.202;7.852;2022-11-15T18:01:55;3.13;;;1.50;;
29218;SDS011;16421;50.202;7.852;2022-11-15T18:06:58;4.07;;;2.20;;
29218;SDS011;16421;50.202;7.852;2022-11-15T18:12:02;2.90;;;1.88;;
29218;SDS011;16421;50.202;7.852;2022-11-15T18:17:07;3.15;;;1.60;;
29218;SDS011;16421;50.202;7.852;2022-11-15T18:22:10;2.45;;;1.50;;
29218;SDS011;16421;50.202;7.852;2022-11-15T18:27:13;2.63;;;1.48;;
29218;SDS011;16421;50.202;7.852;2022-11-15T18:32:18;2.20;;;1.38;;
29218;SDS011;16421;50.202;7.852;2022-11-15T18:37:21;2.10;;;1.35;;
29218;SDS011;16421;50.202;7.852;2022-11-15T18:42:25;2.40;;;1.52;;
29218;SDS011;16421;50.202;7.852;2022-11-15T18:47:32;2.13;;;1.20;;
29218;SDS011;16421;50.202;7.852;2022-11-15T18:52:35;1.83;;;1.02;;
29218;SDS011;16421;50.202;7.852;2022-11-15T18:57:38;1.20;;;1.08;;
29218;SDS011;16421;50.202;7.852;2022-11-15T19:02:43;2.85;;;1.35;;
29218;SDS011;16421;50.202;7.852;2022-11-15T19:07:47;2.88;;;1.63;;
29218;SDS011;16421;50.202;7.852;2022-11-15T19:12:50;2.97;;;1.30;;
29218;SDS011;16421;50.202;7.852;2022-11-15T19:17:55;2.22;;;1.50;;
29218;SDS011;16421;50.202;7.852;2022-11-15T19:22:58;3.63;;;1.92;;
29218;SDS011;16421;50.202;7.852;2022-11-15T19:28:02;1.92;;;1.40;;
29218;SDS011;16421;50.202;7.852;2022-11-15T19:33:07;2.08;;;1.40;;
29218;SDS011;16421;50.202;7.852;2022-11-15T19:38:10;2.40;;;1.42;;
29218;SDS011;16421;50.202;7.852;2022-11-15T19:43:14;2.20;;;1.30;;
29218;SDS011;16421;50.202;7.852;2022-11-15T19:48:19;2.72;;;1.40;;
29218;SDS011;16421;50.202;7.852;2022-11-15T19:53:23;3.35;;;1.77;;
29218;SDS011;16421;50.202;7.852;2022-11-15T19:58:27;2.20;;;1.30;;
29218;SDS011;16421;50.202;7.852;2022-11-15T20:03:33;3.20;;;1.48;;
29218;SDS011;16421;50.202;7.852;2022-11-15T20:08:37;2.03;;;1.45;;
29218;SDS011;16421;50.202;7.852;2022-11-15T20:13:41;1.92;;;1.30;;
29218;SDS011;16421;50.202;7.852;2022-11-15T20:18:46;1.90;;;1.35;;
29218;SDS011;16421;50.202;7.852;2022-11-15T20:23:50;3.23;;;1.67;;
29218;SDS011;16421;50.202;7.852;2022-11-15T20:28:57;2.53;;;1.45;;
29218;SDS011;16421;50.202;7.852;2022-11-15T20:34:05;2.13;;;1.40;;
29218;SDS011;16421;50.202;7.852;2022-11-15T20:39:09;3.05;;;1.75;;
29218;SDS011;16421;50.202;7.852;2022-11-15T20:44:12;2.97;;;1.20;;
29218;SDS011;16421;50.202;7.852;2022-11-15T20:49:17;3.03;;;1.35;;
29218;SDS011;16421;50.202;7.852;2022-11-15T20:54:21;1.35;;;1.20;;
29218;SDS011;16421;50.202;7.852;2022-11-15T20:59:24;1.70;;;1.23;;
29218;SDS011;16421;50.202;7.852;2022-11-15T21:04:29;1.58;;;1.25;;
29218;SDS011;16421;50.202;7.852;2022-11-15T21:09:32;1.60;;;1.10;;
29218;SDS011;16421;50.202;7.852;2022-11-15T21:14:53;2.40;;;1.45;;
29218;SDS011;16421;50.202;7.852;2022-11-15T21:19:58;1.77;;;1.13;;
29218;SDS011;16421;50.202;7.852;2022-11-15T21:25:01;3.00;;;1.83;;
29218;SDS011;16421;50.202;7.852;2022-11-15T21:30:05;2.08;;;1.33;;
29218;SDS011;16421;50.202;7.852;2022-11-15T21:35:14;1.83;;;1.40;;
29218;SDS011;16421;50.202;7.852;2022-11-15T21:40:17;2.42;;;1.17;;
29218;SDS011;16421;50.202;7.852;2022-11-15T21:45:21;1.92;;;1.15;;
29218;SDS011;16421;50.202;7.852;2022-11-15T21:50:28;2.05;;;1.40;;
29218;SDS011;16421;50.202;7.852;2022-11-15T21:55:32;1.27;;;1.15;;
29218;SDS011;16421;50.202;7.852;2022-11-15T22:00:35;1.42;;;1.10;;
29218;SDS011;16421;50.202;7.852;2022-11-15T22:05:58;1.52;;;1.42;;
29218;SDS011;16421;50.202;7.852;2022-11-15T22:11:02;1.42;;;1.20;;
29218;SDS011;16421;50.202;7.852;2022-11-15T22:16:05;1.92;;;1.40;;
29218;SDS011;16421;50.202;7.852;2022-11-15T22:21:11;4.10;;;2.40;;
29218;SDS011;16421;50.202;7.852;2022-11-15T22:26:15;2.25;;;1.65;;
29218;SDS011;16421;50.202;7.852;2022-11-15T22:31:23;3.25;;;1.90;;
29218;SDS011;16421;50.202;7.852;2022-11-15T22:36:28;2.47;;;1.85;;
29218;SDS011;16421;50.202;7.852;2022-11-15T22:41:39;2.85;;;1.98;;
29218;SDS011;16421;50.202;7.852;2022-11-15T22:46:42;2.92;;;1.73;;
29218;SDS011;16421;50.202;7.852;2022-11-15T22:51:47;1.65;;;1.30;;
29218;SDS011;16421;50.202;7.852;2022-11-15T22:56:51;2.22;;;1.42;;
29218;SDS011;16421;50.202;7.852;2022-11-15T23:01:54;2.33;;;1.52;;
29218;SDS011;16421;50.202;7.852;2022-11-15T23:06:59;3.80;;;2.13;;
29218;SDS011;16421;50.202;7.852;2022-11-15T23:12:03;1.70;;;1.50;;
29218;SDS011;16421;50.202;7.852;2022-11-15T23:17:27;4.28;;;1.48;;
29218;SDS011;16421;50.202;7.852;2022-11-15T23:22:33;2.45;;;1.50;;
29218;SDS011;16421;50.202;7.852;2022-11-15T23:27:49;2.28;;;1.40;;
29218;SDS011;16421;50.202;7.852;2022-11-15T23:32:53;2.83;;;1.60;;
29218;SDS011;16421;50.202;7.852;2022-11-15T23:38:14;1.33;;;1.00;;
29218;SDS011;16421;50.202;7.852;2022-11-15T23:43:18;1.23;;;0.85;;
29218;SDS011;16421;50.202;7.852;2022-11-15T23:48:21;1.10;;;1.00;;
29218;SDS011;16421;50.202;7.852;2022-11-15T23:53:26;1.17;;;0.95;;
29218;SDS011;16421;50.202;7.852;2022-11-15T23:58:30;1.73;;;1.30;;
